sensor_id;sensor_type;location;lat;lon;timestamp;temperature;humidity
33099;DHT22;19465;49.016;11.414;2024-02-26T00:00:34;5.00;99.90
33099;DHT22;19465;49.016;11.414;2024-02-26T00:03:00;5.00;99.90
33099;DHT22;19465;49.016;11.414;2024-02-26T00:05:26;5.00;99.90
33099;DHT22;19465;49.016;11.414;2024-02-26T00:07:52;5.00;99.90
33099;DHT22;19465;49.016;11.414;2024-02-26T00:10:17;4.90;99.90
33099;DHT22;19465;49.016;11.414;2024-02-26T00:12:43;4.90;99.90
33099;DHT22;19465;49.016;11.414;2024-02-26T00:15:10;4.90;99.90
33099;DHT22;19465;49.016;11.414;2024-02-26T00:17:36;4.90;99.90
33099;DHT22;19465;49.016;11.414;2024-02-26T00:20:03;4.90;99.90
33099;DHT22;19465;49.016;11.414;2024-02-26T00:22:30;4.90;99.90
33099;DHT22;19465;49.016;11.414;2024-02-26T00:24:56;4.90;99.90
33099;DHT22;19465;49.016;11.414;2024-02-26T00:27:22;4.90;99.90
33099;DHT22;19465;49.016;11.414;2024-02-26T00:29:47;4.80;99.90
33099;DHT22;19465;49.016;11.414;2024-02-26T00:32:13;4.80;99.90
33099;DHT22;19465;49.016;11.414;2024-02-26T00:34:38;4.80;99.90
33099;DHT22;19465;49.016;11.414;2024-02-26T00:37:04;4.80;99.90
33099;DHT22;19465;49.016;11.414;2024-02-26T00:39:29;4.80;99.90
33099;DHT22;19465;49.016;11.414;2024-02-26T00:41:55;4.80;99.90
33099;DHT22;19465;49.016;11.414;2024-02-26T00:44:20;4.80;99.90
33099;DHT22;19465;49.016;11.414;2024-02-26T00:46:46;4.70;99.90
33099;DHT22;19465;49.016;11.414;2024-02-26T00:49:12;4.80;99.90
33099;DHT22;19465;49.016;11.414;2024-02-26T00:51:37;4.70;99.90
33099;DHT22;19465;49.016;11.414;2024-02-26T00:54:03;4.70;99.90
33099;DHT22;19465;49.016;11.414;2024-02-26T00:56:28;4.60;99.90
33099;DHT22;19465;49.016;11.414;2024-02-26T00:58:54;4.50;99.90
33099;DHT22;19465;49.016;11.414;2024-02-26T01:01:19;4.50;99.90
33099;DHT22;19465;49.016;11.414;2024-02-26T01:03:45;4.50;99.90
33099;DHT22;19465;49.016;11.414;2024-02-26T01:06:10;4.50;99.90
33099;DHT22;19465;49.016;11.414;2024-02-26T01:08:36;4.50;99.90
33099;DHT22;19465;49.016;11.414;2024-02-26T01:11:03;4.60;99.90
33099;DHT22;19465;49.016;11.414;2024-02-26T01:13:28;4.50;99.90
33099;DHT22;19465;49.016;11.414;2024-02-26T01:15:54;4.50;99.90
33099;DHT22;19465;49.016;11.414;2024-02-26T01:18:19;4.40;99.90
33099;DHT22;19465;49.016;11.414;2024-02-26T01:20:45;4.50;99.90
33099;DHT22;19465;49.016;11.414;2024-02-26T01:23:10;4.40;99.90
33099;DHT22;19465;49.016;11.414;2024-02-26T01:25:36;4.40;99.90
33099;DHT22;19465;49.016;11.414;2024-02-26T01:28:02;4.40;99.90
33099;DHT22;19465;49.016;11.414;2024-02-26T01:30:28;4.40;99.90
33099;DHT22;19465;49.016;11.414;2024-02-26T01:32:54;4.40;99.90
33099;DHT22;19465;49.016;11.414;2024-02-26T01:35:19;4.40;99.90
33099;DHT22;19465;49.016;11.414;2024-02-26T01:37:45;4.30;99.90
33099;DHT22;19465;49.016;11.414;2024-02-26T01:40:11;4.30;99.90
33099;DHT22;19465;49.016;11.414;2024-02-26T01:42:40;4.30;99.90
33099;DHT22;19465;49.016;11.414;2024-02-26T01:45:14;4.30;99.90
33099;DHT22;19465;49.016;11.414;2024-02-26T01:47:41;4.30;99.90
33099;DHT22;19465;49.016;11.414;2024-02-26T01:50:07;4.20;99.90
33099;DHT22;19465;49.016;11.414;2024-02-26T01:52:34;4.20;99.90
33099;DHT22;19465;49.016;11.414;2024-02-26T01:54:59;4.20;99.90
33099;DHT22;19465;49.016;11.414;2024-02-26T01:57:27;4.20;99.90
33099;DHT22;19465;49.016;11.414;2024-02-26T01:59:53;4.20;99.90
33099;DHT22;19465;49.016;11.414;2024-02-26T02:02:19;4.20;99.90
33099;DHT22;19465;49.016;11.414;2024-02-26T02:04:44;4.20;99.90
33099;DHT22;19465;49.016;11.414;2024-02-26T02:07:10;4.20;99.90
33099;DHT22;19465;49.016;11.414;2024-02-26T02:09:36;4.10;99.90
33099;DHT22;19465;49.016;11.414;2024-02-26T02:12:02;4.10;99.90
33099;DHT22;19465;49.016;11.414;2024-02-26T02:14:27;4.00;99.90
33099;DHT22;19465;49.016;11.414;2024-02-26T02:16:53;4.10;99.90
33099;DHT22;19465;49.016;11.414;2024-02-26T02:19:19;4.10;99.90
33099;DHT22;19465;49.016;11.414;2024-02-26T02:21:44;4.00;99.90
33099;DHT22;19465;49.016;11.414;2024-02-26T02:24:10;4.10;99.90
33099;DHT22;19465;49.016;11.414;2024-02-26T02:26:35;4.00;99.90
33099;DHT22;19465;49.016;11.414;2024-02-26T02:29:02;4.10;99.90
33099;DHT22;19465;49.016;11.414;2024-02-26T02:31:28;4.20;99.90
33099;DHT22;19465;49.016;11.414;2024-02-26T02:33:53;4.10;99.90
33099;DHT22;19465;49.016;11.414;2024-02-26T02:36:19;4.00;99.90
33099;DHT22;19465;49.016;11.414;2024-02-26T02:38:51;4.10;99.90
33099;DHT22;19465;49.016;11.414;2024-02-26T02:41:17;4.20;99.90
33099;DHT22;19465;49.016;11.414;2024-02-26T02:43:43;4.10;99.90
33099;DHT22;19465;49.016;11.414;2024-02-26T02:46:08;4.20;99.90
33099;DHT22;19465;49.016;11.414;2024-02-26T02:48:34;4.20;99.90
33099;DHT22;19465;49.016;11.414;2024-02-26T02:50:59;4.20;99.90
33099;DHT22;19465;49.016;11.414;2024-02-26T02:53:25;4.20;99.90
33099;DHT22;19465;49.016;11.414;2024-02-26T02:55:50;4.20;99.90
33099;DHT22;19465;49.016;11.414;2024-02-26T02:58:16;4.20;99.90
33099;DHT22;19465;49.016;11.414;2024-02-26T03:00:41;4.20;99.90
33099;DHT22;19465;49.016;11.414;2024-02-26T03:03:07;4.10;99.90
33099;DHT22;19465;49.016;11.414;2024-02-26T03:05:32;4.10;99.90
33099;DHT22;19465;49.016;11.414;2024-02-26T03:07:58;4.00;99.90
33099;DHT22;19465;49.016;11.414;2024-02-26T03:10:23;4.00;99.90
33099;DHT22;19465;49.016;11.414;2024-02-26T03:12:50;4.00;99.90
33099;DHT22;19465;49.016;11.414;2024-02-26T03:15:15;4.00;99.90
33099;DHT22;19465;49.016;11.414;2024-02-26T03:17:41;3.90;99.90
33099;DHT22;19465;49.016;11.414;2024-02-26T03:20:07;3.90;99.90
33099;DHT22;19465;49.016;11.414;2024-02-26T03:22:34;3.90;99.90
33099;DHT22;19465;49.016;11.414;2024-02-26T03:25:00;3.80;99.90
33099;DHT22;19465;49.016;11.414;2024-02-26T03:27:26;3.90;99.90
33099;DHT22;19465;49.016;11.414;2024-02-26T03:29:51;3.80;99.90
33099;DHT22;19465;49.016;11.414;2024-02-26T03:32:18;3.90;99.90
33099;DHT22;19465;49.016;11.414;2024-02-26T03:34:43;3.80;99.90
33099;DHT22;19465;49.016;11.414;2024-02-26T03:37:09;3.90;99.90
33099;DHT22;19465;49.016;11.414;2024-02-26T03:39:36;3.90;99.90
33099;DHT22;19465;49.016;11.414;2024-02-26T03:42:03;3.80;99.90
33099;DHT22;19465;49.016;11.414;2024-02-26T03:44:28;3.90;99.90
33099;DHT22;19465;49.016;11.414;2024-02-26T03:46:54;3.90;99.90
33099;DHT22;19465;49.016;11.414;2024-02-26T03:49:19;3.90;99.90
33099;DHT22;19465;49.016;11.414;2024-02-26T03:51:45;3.80;99.90
33099;DHT22;19465;49.016;11.414;2024-02-26T03:54:10;3.80;99.90
33099;DHT22;19465;49.016;11.414;2024-02-26T03:56:36;3.80;99.90
33099;DHT22;19465;49.016;11.414;2024-02-26T03:59:01;3.90;99.90
33099;DHT22;19465;49.016;11.414;2024-02-26T04:01:27;4.00;99.90
33099;DHT22;19465;49.016;11.414;2024-02-26T04:03:54;3.90;99.90
33099;DHT22;19465;49.016;11.414;2024-02-26T04:06:19;3.80;99.90
33099;DHT22;19465;49.016;11.414;2024-02-26T04:08:46;3.80;99.90
33099;DHT22;19465;49.016;11.414;2024-02-26T04:11:12;3.90;99.90
33099;DHT22;19465;49.016;11.414;2024-02-26T04:13:38;3.90;99.90
33099;DHT22;19465;49.016;11.414;2024-02-26T04:16:04;3.90;99.90
33099;DHT22;19465;49.016;11.414;2024-02-26T04:18:31;3.90;99.90
33099;DHT22;19465;49.016;11.414;2024-02-26T04:20:57;4.00;99.90
33099;DHT22;19465;49.016;11.414;2024-02-26T04:23:22;4.00;99.90
33099;DHT22;19465;49.016;11.414;2024-02-26T04:25:48;4.10;99.90
33099;DHT22;19465;49.016;11.414;2024-02-26T04:28:14;4.10;99.90
33099;DHT22;19465;49.016;11.414;2024-02-26T04:30:40;4.10;99.90
33099;DHT22;19465;49.016;11.414;2024-02-26T04:33:05;4.30;99.90
33099;DHT22;19465;49.016;11.414;2024-02-26T04:35:31;4.30;99.90
33099;DHT22;19465;49.016;11.414;2024-02-26T04:37:56;4.30;99.90
33099;DHT22;19465;49.016;11.414;2024-02-26T04:40:22;4.40;99.90
33099;DHT22;19465;49.016;11.414;2024-02-26T04:42:48;4.40;99.90
33099;DHT22;19465;49.016;11.414;2024-02-26T04:45:13;4.40;99.90
33099;DHT22;19465;49.016;11.414;2024-02-26T04:47:39;4.40;99.90
33099;DHT22;19465;49.016;11.414;2024-02-26T04:50:05;4.40;99.90
33099;DHT22;19465;49.016;11.414;2024-02-26T04:52:30;4.40;99.90
33099;DHT22;19465;49.016;11.414;2024-02-26T04:54:56;4.40;99.90
33099;DHT22;19465;49.016;11.414;2024-02-26T04:57:22;4.30;99.90
33099;DHT22;19465;49.016;11.414;2024-02-26T04:59:47;4.30;99.90
33099;DHT22;19465;49.016;11.414;2024-02-26T05:02:13;4.20;99.90
33099;DHT22;19465;49.016;11.414;2024-02-26T05:04:39;4.20;99.90
33099;DHT22;19465;49.016;11.414;2024-02-26T05:07:05;4.20;99.90
33099;DHT22;19465;49.016;11.414;2024-02-26T05:09:31;4.20;99.90
33099;DHT22;19465;49.016;11.414;2024-02-26T05:11:57;4.10;99.90
33099;DHT22;19465;49.016;11.414;2024-02-26T05:14:22;4.10;99.90
33099;DHT22;19465;49.016;11.414;2024-02-26T05:16:48;4.10;99.90
33099;DHT22;19465;49.016;11.414;2024-02-26T05:19:13;4.10;99.90
33099;DHT22;19465;49.016;11.414;2024-02-26T05:21:39;4.10;99.90
33099;DHT22;19465;49.016;11.414;2024-02-26T05:24:06;4.00;99.90
33099;DHT22;19465;49.016;11.414;2024-02-26T05:26:31;4.00;99.90
33099;DHT22;19465;49.016;11.414;2024-02-26T05:28:57;4.00;99.90
33099;DHT22;19465;49.016;11.414;2024-02-26T05:31:26;4.00;99.90
33099;DHT22;19465;49.016;11.414;2024-02-26T05:33:52;4.10;99.90
33099;DHT22;19465;49.016;11.414;2024-02-26T05:36:18;4.10;99.90
33099;DHT22;19465;49.016;11.414;2024-02-26T05:38:45;4.10;99.90
33099;DHT22;19465;49.016;11.414;2024-02-26T05:41:11;4.10;99.90
33099;DHT22;19465;49.016;11.414;2024-02-26T05:43:37;4.10;99.90
33099;DHT22;19465;49.016;11.414;2024-02-26T05:46:03;4.20;99.90
33099;DHT22;19465;49.016;11.414;2024-02-26T05:48:28;4.20;99.90
33099;DHT22;19465;49.016;11.414;2024-02-26T05:50:54;4.10;99.90
33099;DHT22;19465;49.016;11.414;2024-02-26T05:53:19;4.10;99.90
33099;DHT22;19465;49.016;11.414;2024-02-26T05:55:45;4.10;99.90
33099;DHT22;19465;49.016;11.414;2024-02-26T05:58:10;4.20;99.90
33099;DHT22;19465;49.016;11.414;2024-02-26T06:00:36;4.20;99.90
33099;DHT22;19465;49.016;11.414;2024-02-26T06:03:01;4.20;99.90
33099;DHT22;19465;49.016;11.414;2024-02-26T06:05:27;4.20;99.90
33099;DHT22;19465;49.016;11.414;2024-02-26T06:07:53;4.20;99.90
33099;DHT22;19465;49.016;11.414;2024-02-26T06:10:19;4.30;99.90
33099;DHT22;19465;49.016;11.414;2024-02-26T06:12:46;4.30;99.90
33099;DHT22;19465;49.016;11.414;2024-02-26T06:15:12;4.30;99.90
33099;DHT22;19465;49.016;11.414;2024-02-26T06:17:38;4.30;99.90
33099;DHT22;19465;49.016;11.414;2024-02-26T06:20:03;4.30;99.90
33099;DHT22;19465;49.016;11.414;2024-02-26T06:22:31;4.40;99.90
33099;DHT22;19465;49.016;11.414;2024-02-26T06:24:57;4.40;99.90
33099;DHT22;19465;49.016;11.414;2024-02-26T06:27:23;4.40;99.90
33099;DHT22;19465;49.016;11.414;2024-02-26T06:29:49;4.40;99.90
33099;DHT22;19465;49.016;11.414;2024-02-26T06:32:15;4.50;99.90
33099;DHT22;19465;49.016;11.414;2024-02-26T06:34:40;4.50;99.90
33099;DHT22;19465;49.016;11.414;2024-02-26T06:37:07;4.60;99.90
33099;DHT22;19465;49.016;11.414;2024-02-26T06:39:33;4.60;99.90
33099;DHT22;19465;49.016;11.414;2024-02-26T06:41:59;4.70;99.90
33099;DHT22;19465;49.016;11.414;2024-02-26T06:44:27;4.70;99.90
33099;DHT22;19465;49.016;11.414;2024-02-26T06:46:58;4.80;99.90
33099;DHT22;19465;49.016;11.414;2024-02-26T06:49:24;4.90;99.90
33099;DHT22;19465;49.016;11.414;2024-02-26T06:51:50;4.90;99.90
33099;DHT22;19465;49.016;11.414;2024-02-26T06:54:15;5.10;99.90
33099;DHT22;19465;49.016;11.414;2024-02-26T06:56:41;5.20;99.90
33099;DHT22;19465;49.016;11.414;2024-02-26T06:59:06;5.40;99.90
33099;DHT22;19465;49.016;11.414;2024-02-26T07:01:32;5.60;99.90
33099;DHT22;19465;49.016;11.414;2024-02-26T07:03:57;5.80;99.90
33099;DHT22;19465;49.016;11.414;2024-02-26T07:06:23;6.10;99.90
33099;DHT22;19465;49.016;11.414;2024-02-26T07:08:48;6.60;99.90
33099;DHT22;19465;49.016;11.414;2024-02-26T07:11:14;7.00;99.90
33099;DHT22;19465;49.016;11.414;2024-02-26T07:13:39;7.20;99.90
33099;DHT22;19465;49.016;11.414;2024-02-26T07:16:05;7.10;99.90
33099;DHT22;19465;49.016;11.414;2024-02-26T07:18:31;6.60;99.90
33099;DHT22;19465;49.016;11.414;2024-02-26T07:20:56;6.50;99.90
33099;DHT22;19465;49.016;11.414;2024-02-26T07:23:22;6.40;99.90
33099;DHT22;19465;49.016;11.414;2024-02-26T07:25:47;6.30;99.90
33099;DHT22;19465;49.016;11.414;2024-02-26T07:28:15;6.30;99.90
33099;DHT22;19465;49.016;11.414;2024-02-26T07:30:40;6.30;99.90
33099;DHT22;19465;49.016;11.414;2024-02-26T07:33:06;6.10;99.90
33099;DHT22;19465;49.016;11.414;2024-02-26T07:35:32;6.00;99.90
33099;DHT22;19465;49.016;11.414;2024-02-26T07:37:58;6.00;99.90
33099;DHT22;19465;49.016;11.414;2024-02-26T07:40:24;6.00;99.90
33099;DHT22;19465;49.016;11.414;2024-02-26T07:42:50;6.00;99.90
33099;DHT22;19465;49.016;11.414;2024-02-26T07:45:15;6.10;99.90
33099;DHT22;19465;49.016;11.414;2024-02-26T07:47:43;6.20;99.90
33099;DHT22;19465;49.016;11.414;2024-02-26T07:50:08;6.30;99.90
33099;DHT22;19465;49.016;11.414;2024-02-26T07:52:34;6.60;99.90
33099;DHT22;19465;49.016;11.414;2024-02-26T07:55:00;7.00;99.90
33099;DHT22;19465;49.016;11.414;2024-02-26T07:57:25;7.40;99.90
33099;DHT22;19465;49.016;11.414;2024-02-26T07:59:51;7.60;99.10
33099;DHT22;19465;49.016;11.414;2024-02-26T08:02:17;7.60;98.00
33099;DHT22;19465;49.016;11.414;2024-02-26T08:04:42;7.70;97.80
33099;DHT22;19465;49.016;11.414;2024-02-26T08:07:08;7.50;98.30
33099;DHT22;19465;49.016;11.414;2024-02-26T08:09:33;7.30;98.90
33099;DHT22;19465;49.016;11.414;2024-02-26T08:11:59;7.10;98.90
33099;DHT22;19465;49.016;11.414;2024-02-26T08:14:24;6.90;99.30
33099;DHT22;19465;49.016;11.414;2024-02-26T08:16:50;6.80;99.60
33099;DHT22;19465;49.016;11.414;2024-02-26T08:19:15;6.70;99.90
33099;DHT22;19465;49.016;11.414;2024-02-26T08:21:41;6.80;99.90
33099;DHT22;19465;49.016;11.414;2024-02-26T08:24:07;6.70;99.90
33099;DHT22;19465;49.016;11.414;2024-02-26T08:26:32;6.60;99.90
33099;DHT22;19465;49.016;11.414;2024-02-26T08:28:58;6.50;99.90
33099;DHT22;19465;49.016;11.414;2024-02-26T08:31:23;6.50;99.90
33099;DHT22;19465;49.016;11.414;2024-02-26T08:33:49;6.60;99.90
33099;DHT22;19465;49.016;11.414;2024-02-26T08:36:15;6.50;99.90
33099;DHT22;19465;49.016;11.414;2024-02-26T08:38:40;6.60;99.90
33099;DHT22;19465;49.016;11.414;2024-02-26T08:41:06;6.60;99.90
33099;DHT22;19465;49.016;11.414;2024-02-26T08:43:31;6.60;99.90
33099;DHT22;19465;49.016;11.414;2024-02-26T08:46:00;6.70;99.90
33099;DHT22;19465;49.016;11.414;2024-02-26T08:48:25;6.70;99.90
33099;DHT22;19465;49.016;11.414;2024-02-26T08:50:51;6.90;99.80
33099;DHT22;19465;49.016;11.414;2024-02-26T08:53:16;7.20;99.50
33099;DHT22;19465;49.016;11.414;2024-02-26T08:55:42;7.40;98.60
33099;DHT22;19465;49.016;11.414;2024-02-26T08:58:07;7.70;98.00
33099;DHT22;19465;49.016;11.414;2024-02-26T09:00:33;8.10;97.90
33099;DHT22;19465;49.016;11.414;2024-02-26T09:02:58;8.30;96.40
33099;DHT22;19465;49.016;11.414;2024-02-26T09:05:24;8.40;95.90
33099;DHT22;19465;49.016;11.414;2024-02-26T09:07:50;8.60;95.50
33099;DHT22;19465;49.016;11.414;2024-02-26T09:10:17;8.60;94.50
33099;DHT22;19465;49.016;11.414;2024-02-26T09:12:43;9.00;94.20
33099;DHT22;19465;49.016;11.414;2024-02-26T09:15:08;9.70;93.30
33099;DHT22;19465;49.016;11.414;2024-02-26T09:17:34;10.60;90.60
33099;DHT22;19465;49.016;11.414;2024-02-26T09:20:00;12.30;86.70
33099;DHT22;19465;49.016;11.414;2024-02-26T09:22:25;13.70;78.20
33099;DHT22;19465;49.016;11.414;2024-02-26T09:24:51;16.60;70.50
33099;DHT22;19465;49.016;11.414;2024-02-26T09:27:17;19.00;61.90
33099;DHT22;19465;49.016;11.414;2024-02-26T09:29:43;18.90;57.60
33099;DHT22;19465;49.016;11.414;2024-02-26T09:32:08;17.90;58.70
33099;DHT22;19465;49.016;11.414;2024-02-26T09:34:34;16.30;60.10
33099;DHT22;19465;49.016;11.414;2024-02-26T09:37:00;15.70;63.60
33099;DHT22;19465;49.016;11.414;2024-02-26T09:39:26;15.30;64.50
33099;DHT22;19465;49.016;11.414;2024-02-26T09:41:53;14.90;64.60
33099;DHT22;19465;49.016;11.414;2024-02-26T09:44:19;13.90;68.40
33099;DHT22;19465;49.016;11.414;2024-02-26T09:46:48;12.60;71.30
33099;DHT22;19465;49.016;11.414;2024-02-26T09:49:18;12.20;74.40
33099;DHT22;19465;49.016;11.414;2024-02-26T09:51:45;11.30;75.40
33099;DHT22;19465;49.016;11.414;2024-02-26T09:54:12;11.10;76.50
33099;DHT22;19465;49.016;11.414;2024-02-26T09:56:39;11.10;77.30
33099;DHT22;19465;49.016;11.414;2024-02-26T09:59:12;10.80;78.20
33099;DHT22;19465;49.016;11.414;2024-02-26T10:01:42;10.90;80.00
33099;DHT22;19465;49.016;11.414;2024-02-26T10:04:08;10.70;79.90
33099;DHT22;19465;49.016;11.414;2024-02-26T10:06:36;10.50;81.20
33099;DHT22;19465;49.016;11.414;2024-02-26T10:09:02;10.50;81.30
33099;DHT22;19465;49.016;11.414;2024-02-26T10:11:32;10.50;81.90
33099;DHT22;19465;49.016;11.414;2024-02-26T10:13:57;10.40;82.60
33099;DHT22;19465;49.016;11.414;2024-02-26T10:16:24;10.60;82.40
33099;DHT22;19465;49.016;11.414;2024-02-26T10:18:50;10.30;82.90
33099;DHT22;19465;49.016;11.414;2024-02-26T10:21:17;10.40;83.40
33099;DHT22;19465;49.016;11.414;2024-02-26T10:23:43;10.60;83.20
33099;DHT22;19465;49.016;11.414;2024-02-26T10:26:11;10.70;82.50
33099;DHT22;19465;49.016;11.414;2024-02-26T10:28:38;11.60;80.00
33099;DHT22;19465;49.016;11.414;2024-02-26T10:31:04;13.00;76.70
33099;DHT22;19465;49.016;11.414;2024-02-26T10:33:31;13.90;73.00
33099;DHT22;19465;49.016;11.414;2024-02-26T10:36:07;14.60;71.20
33099;DHT22;19465;49.016;11.414;2024-02-26T10:38:36;14.40;71.40
33099;DHT22;19465;49.016;11.414;2024-02-26T10:41:06;13.90;72.10
33099;DHT22;19465;49.016;11.414;2024-02-26T10:43:31;13.40;73.40
33099;DHT22;19465;49.016;11.414;2024-02-26T10:45:57;13.90;72.50
33099;DHT22;19465;49.016;11.414;2024-02-26T10:48:23;14.60;71.20
33099;DHT22;19465;49.016;11.414;2024-02-26T10:50:49;16.00;68.30
33099;DHT22;19465;49.016;11.414;2024-02-26T10:53:18;16.80;66.00
33099;DHT22;19465;49.016;11.414;2024-02-26T10:55:55;18.10;63.10
33099;DHT22;19465;49.016;11.414;2024-02-26T10:58:22;18.50;61.10
33099;DHT22;19465;49.016;11.414;2024-02-26T11:00:51;18.10;60.00
33099;DHT22;19465;49.016;11.414;2024-02-26T11:03:18;17.50;62.10
33099;DHT22;19465;49.016;11.414;2024-02-26T11:05:47;16.90;62.70
33099;DHT22;19465;49.016;11.414;2024-02-26T11:08:13;16.00;64.50
33099;DHT22;19465;49.016;11.414;2024-02-26T11:10:40;15.60;64.40
33099;DHT22;19465;49.016;11.414;2024-02-26T11:13:06;14.80;67.10
33099;DHT22;19465;49.016;11.414;2024-02-26T11:15:34;14.20;68.10
33099;DHT22;19465;49.016;11.414;2024-02-26T11:17:59;13.60;70.70
33099;DHT22;19465;49.016;11.414;2024-02-26T11:20:28;13.20;70.80
33099;DHT22;19465;49.016;11.414;2024-02-26T11:22:55;12.90;71.80
33099;DHT22;19465;49.016;11.414;2024-02-26T11:25:21;12.70;72.40
33099;DHT22;19465;49.016;11.414;2024-02-26T11:27:50;12.50;73.70
33099;DHT22;19465;49.016;11.414;2024-02-26T11:30:18;12.40;73.80
33099;DHT22;19465;49.016;11.414;2024-02-26T11:32:45;12.20;74.00
33099;DHT22;19465;49.016;11.414;2024-02-26T11:35:11;12.20;74.40
33099;DHT22;19465;49.016;11.414;2024-02-26T11:37:41;12.00;73.90
33099;DHT22;19465;49.016;11.414;2024-02-26T11:40:11;11.90;75.30
33099;DHT22;19465;49.016;11.414;2024-02-26T11:42:43;11.80;73.80
33099;DHT22;19465;49.016;11.414;2024-02-26T11:48:04;11.70;75.30
33099;DHT22;19465;49.016;11.414;2024-02-26T11:50:39;11.90;74.70
33099;DHT22;19465;49.016;11.414;2024-02-26T11:53:21;11.90;74.30
33099;DHT22;19465;49.016;11.414;2024-02-26T11:55:48;12.10;74.80
33099;DHT22;19465;49.016;11.414;2024-02-26T11:58:14;12.30;74.00
33099;DHT22;19465;49.016;11.414;2024-02-26T12:00:40;12.50;73.80
33099;DHT22;19465;49.016;11.414;2024-02-26T12:03:07;12.70;72.50
33099;DHT22;19465;49.016;11.414;2024-02-26T12:05:34;12.80;73.70
33099;DHT22;19465;49.016;11.414;2024-02-26T12:08:03;13.00;72.40
33099;DHT22;19465;49.016;11.414;2024-02-26T12:10:33;13.40;71.90
33099;DHT22;19465;49.016;11.414;2024-02-26T12:13:16;13.80;70.20
33099;DHT22;19465;49.016;11.414;2024-02-26T12:15:44;14.80;68.80
33099;DHT22;19465;49.016;11.414;2024-02-26T12:18:11;16.20;65.70
33099;DHT22;19465;49.016;11.414;2024-02-26T12:20:40;16.80;63.00
33099;DHT22;19465;49.016;11.414;2024-02-26T12:23:06;16.80;63.00
33099;DHT22;19465;49.016;11.414;2024-02-26T12:25:32;17.00;63.20
33099;DHT22;19465;49.016;11.414;2024-02-26T12:28:00;17.60;61.80
33099;DHT22;19465;49.016;11.414;2024-02-26T12:30:26;18.60;60.70
33099;DHT22;19465;49.016;11.414;2024-02-26T12:32:55;19.80;58.30
33099;DHT22;19465;49.016;11.414;2024-02-26T12:35:26;21.10;56.60
33099;DHT22;19465;49.016;11.414;2024-02-26T12:37:53;21.60;54.10
33099;DHT22;19465;49.016;11.414;2024-02-26T12:40:20;22.50;53.30
33099;DHT22;19465;49.016;11.414;2024-02-26T12:42:46;22.70;52.70
33099;DHT22;19465;49.016;11.414;2024-02-26T12:45:13;23.10;51.60
33099;DHT22;19465;49.016;11.414;2024-02-26T12:47:40;22.80;51.10
33099;DHT22;19465;49.016;11.414;2024-02-26T12:50:07;23.60;50.30
33099;DHT22;19465;49.016;11.414;2024-02-26T12:52:34;24.80;49.50
33099;DHT22;19465;49.016;11.414;2024-02-26T12:55:01;26.00;47.60
33099;DHT22;19465;49.016;11.414;2024-02-26T12:57:31;26.30;46.40
33099;DHT22;19465;49.016;11.414;2024-02-26T12:59:59;26.30;46.00
33099;DHT22;19465;49.016;11.414;2024-02-26T13:02:25;27.20;45.30
33099;DHT22;19465;49.016;11.414;2024-02-26T13:04:51;27.00;44.10
33099;DHT22;19465;49.016;11.414;2024-02-26T13:07:17;23.90;44.90
33099;DHT22;19465;49.016;11.414;2024-02-26T13:09:43;21.40;48.20
33099;DHT22;19465;49.016;11.414;2024-02-26T13:12:09;20.00;50.70
33099;DHT22;19465;49.016;11.414;2024-02-26T13:14:35;19.30;52.30
33099;DHT22;19465;49.016;11.414;2024-02-26T13:17:01;18.80;53.20
33099;DHT22;19465;49.016;11.414;2024-02-26T13:19:27;18.30;53.80
33099;DHT22;19465;49.016;11.414;2024-02-26T13:21:55;17.40;55.20
33099;DHT22;19465;49.016;11.414;2024-02-26T13:24:21;16.90;56.40
33099;DHT22;19465;49.016;11.414;2024-02-26T13:26:54;16.50;57.60
33099;DHT22;19465;49.016;11.414;2024-02-26T13:29:19;15.80;58.00
33099;DHT22;19465;49.016;11.414;2024-02-26T13:31:45;15.40;59.80
33099;DHT22;19465;49.016;11.414;2024-02-26T13:34:24;14.60;60.00
33099;DHT22;19465;49.016;11.414;2024-02-26T13:36:51;14.40;61.90
33099;DHT22;19465;49.016;11.414;2024-02-26T13:39:23;13.90;62.40
33099;DHT22;19465;49.016;11.414;2024-02-26T13:41:53;13.60;63.70
33099;DHT22;19465;49.016;11.414;2024-02-26T13:44:21;13.40;64.20
33099;DHT22;19465;49.016;11.414;2024-02-26T13:46:48;13.30;65.20
33099;DHT22;19465;49.016;11.414;2024-02-26T13:49:14;13.30;65.40
33099;DHT22;19465;49.016;11.414;2024-02-26T13:51:40;13.20;64.90
33099;DHT22;19465;49.016;11.414;2024-02-26T13:54:06;13.20;65.90
33099;DHT22;19465;49.016;11.414;2024-02-26T13:56:32;13.10;66.70
33099;DHT22;19465;49.016;11.414;2024-02-26T13:58:58;13.00;65.90
33099;DHT22;19465;49.016;11.414;2024-02-26T14:01:24;12.90;65.60
33099;DHT22;19465;49.016;11.414;2024-02-26T14:03:50;12.70;66.30
33099;DHT22;19465;49.016;11.414;2024-02-26T14:06:16;12.60;66.80
33099;DHT22;19465;49.016;11.414;2024-02-26T14:08:41;12.50;67.50
33099;DHT22;19465;49.016;11.414;2024-02-26T14:11:07;12.50;68.40
33099;DHT22;19465;49.016;11.414;2024-02-26T14:13:32;12.40;68.00
33099;DHT22;19465;49.016;11.414;2024-02-26T14:15:58;12.30;68.60
33099;DHT22;19465;49.016;11.414;2024-02-26T14:18:24;12.30;68.90
33099;DHT22;19465;49.016;11.414;2024-02-26T14:20:49;12.30;69.10
33099;DHT22;19465;49.016;11.414;2024-02-26T14:23:15;12.20;69.40
33099;DHT22;19465;49.016;11.414;2024-02-26T14:25:40;12.10;69.60
33099;DHT22;19465;49.016;11.414;2024-02-26T14:28:06;12.10;70.40
33099;DHT22;19465;49.016;11.414;2024-02-26T14:30:31;12.10;69.70
33099;DHT22;19465;49.016;11.414;2024-02-26T14:32:58;12.00;70.30
33099;DHT22;19465;49.016;11.414;2024-02-26T14:35:24;11.90;71.20
33099;DHT22;19465;49.016;11.414;2024-02-26T14:37:50;11.80;70.90
33099;DHT22;19465;49.016;11.414;2024-02-26T14:40:17;11.70;71.30
33099;DHT22;19465;49.016;11.414;2024-02-26T14:42:42;11.50;71.80
33099;DHT22;19465;49.016;11.414;2024-02-26T14:45:08;11.50;72.40
33099;DHT22;19465;49.016;11.414;2024-02-26T14:47:38;11.40;72.30
33099;DHT22;19465;49.016;11.414;2024-02-26T14:50:04;11.40;72.70
33099;DHT22;19465;49.016;11.414;2024-02-26T14:52:30;11.30;72.60
33099;DHT22;19465;49.016;11.414;2024-02-26T14:54:56;11.30;72.80
33099;DHT22;19465;49.016;11.414;2024-02-26T14:57:23;11.20;73.20
33099;DHT22;19465;49.016;11.414;2024-02-26T14:59:49;11.10;73.70
33099;DHT22;19465;49.016;11.414;2024-02-26T15:02:15;11.00;74.20
33099;DHT22;19465;49.016;11.414;2024-02-26T15:04:41;11.00;74.30
33099;DHT22;19465;49.016;11.414;2024-02-26T15:07:06;10.90;73.70
33099;DHT22;19465;49.016;11.414;2024-02-26T15:09:32;10.80;74.10
33099;DHT22;19465;49.016;11.414;2024-02-26T15:11:58;10.80;74.90
33099;DHT22;19465;49.016;11.414;2024-02-26T15:14:23;10.80;74.20
33099;DHT22;19465;49.016;11.414;2024-02-26T15:16:50;10.70;72.90
33099;DHT22;19465;49.016;11.414;2024-02-26T15:19:16;10.70;73.40
33099;DHT22;19465;49.016;11.414;2024-02-26T15:21:45;10.70;73.70